sensor_id;sensor_type;location;lat;lon;timestamp;temperature;humidity
14471;DHT22;7321;50.802;4.336;2022-11-23T00:00:13;11.00;99.90
14471;DHT22;7321;50.802;4.336;2022-11-23T00:02:40;11.00;99.90
14471;DHT22;7321;50.802;4.336;2022-11-23T00:05:06;11.00;99.90
14471;DHT22;7321;50.802;4.336;2022-11-23T00:07:33;11.00;99.90
14471;DHT22;7321;50.802;4.336;2022-11-23T00:10:02;11.00;99.90
14471;DHT22;7321;50.802;4.336;2022-11-23T00:12:27;10.90;99.90
14471;DHT22;7321;50.802;4.336;2022-11-23T00:14:53;10.90;99.90
14471;DHT22;7321;50.802;4.336;2022-11-23T00:17:20;11.00;99.90
14471;DHT22;7321;50.802;4.336;2022-11-23T00:19:48;11.00;99.90
14471;DHT22;7321;50.802;4.336;2022-11-23T00:22:14;11.00;99.90
14471;DHT22;7321;50.802;4.336;2022-11-23T00:24:40;11.00;99.90
14471;DHT22;7321;50.802;4.336;2022-11-23T00:27:06;11.00;99.90
14471;DHT22;7321;50.802;4.336;2022-11-23T00:29:32;11.00;99.90
14471;DHT22;7321;50.802;4.336;2022-11-23T00:32:02;11.00;99.90
14471;DHT22;7321;50.802;4.336;2022-11-23T00:34:28;10.90;99.90
14471;DHT22;7321;50.802;4.336;2022-11-23T00:36:57;10.90;99.90
14471;DHT22;7321;50.802;4.336;2022-11-23T00:39:23;10.80;99.90
14471;DHT22;7321;50.802;4.336;2022-11-23T00:41:48;10.80;99.90
14471;DHT22;7321;50.802;4.336;2022-11-23T00:44:15;10.80;99.90
14471;DHT22;7321;50.802;4.336;2022-11-23T00:46:43;11.00;99.90
14471;DHT22;7321;50.802;4.336;2022-11-23T00:49:09;10.90;99.90
14471;DHT22;7321;50.802;4.336;2022-11-23T00:51:35;11.00;99.90
14471;DHT22;7321;50.802;4.336;2022-11-23T00:54:04;11.00;99.90
14471;DHT22;7321;50.802;4.336;2022-11-23T00:56:32;11.00;99.90
14471;DHT22;7321;50.802;4.336;2022-11-23T00:58:59;11.00;99.90
14471;DHT22;7321;50.802;4.336;2022-11-23T01:01:28;11.00;99.90
14471;DHT22;7321;50.802;4.336;2022-11-23T01:03:56;11.00;99.90
14471;DHT22;7321;50.802;4.336;2022-11-23T01:06:28;11.10;99.90
14471;DHT22;7321;50.802;4.336;2022-11-23T01:09:00;11.00;99.90
14471;DHT22;7321;50.802;4.336;2022-11-23T01:11:28;10.90;99.90
14471;DHT22;7321;50.802;4.336;2022-11-23T01:13:54;10.80;99.90
14471;DHT22;7321;50.802;4.336;2022-11-23T01:16:23;10.70;99.90
14471;DHT22;7321;50.802;4.336;2022-11-23T01:19:00;10.80;99.90
14471;DHT22;7321;50.802;4.336;2022-11-23T01:21:28;10.90;99.90
14471;DHT22;7321;50.802;4.336;2022-11-23T01:23:54;11.00;99.90
14471;DHT22;7321;50.802;4.336;2022-11-23T01:26:21;10.90;99.90
14471;DHT22;7321;50.802;4.336;2022-11-23T01:28:47;10.90;99.90
14471;DHT22;7321;50.802;4.336;2022-11-23T01:31:19;10.80;99.90
14471;DHT22;7321;50.802;4.336;2022-11-23T01:33:45;10.80;99.90
14471;DHT22;7321;50.802;4.336;2022-11-23T01:36:13;10.90;99.90
14471;DHT22;7321;50.802;4.336;2022-11-23T01:38:40;10.90;99.90
14471;DHT22;7321;50.802;4.336;2022-11-23T01:41:08;10.90;99.90
14471;DHT22;7321;50.802;4.336;2022-11-23T01:43:37;10.80;99.90
14471;DHT22;7321;50.802;4.336;2022-11-23T01:46:03;10.80;99.90
14471;DHT22;7321;50.802;4.336;2022-11-23T01:48:53;10.80;99.90
14471;DHT22;7321;50.802;4.336;2022-11-23T01:51:26;10.80;99.90
14471;DHT22;7321;50.802;4.336;2022-11-23T01:53:56;10.80;99.90
14471;DHT22;7321;50.802;4.336;2022-11-23T01:56:28;10.90;99.90
14471;DHT22;7321;50.802;4.336;2022-11-23T01:58:57;10.90;99.90
14471;DHT22;7321;50.802;4.336;2022-11-23T02:01:26;11.00;99.90
14471;DHT22;7321;50.802;4.336;2022-11-23T02:03:53;11.10;99.90
14471;DHT22;7321;50.802;4.336;2022-11-23T02:06:20;11.00;99.90
14471;DHT22;7321;50.802;4.336;2022-11-23T02:08:47;10.90;99.90
14471;DHT22;7321;50.802;4.336;2022-11-23T02:11:15;10.80;99.90
14471;DHT22;7321;50.802;4.336;2022-11-23T02:13:43;10.80;99.90
14471;DHT22;7321;50.802;4.336;2022-11-23T02:16:12;10.80;99.90
14471;DHT22;7321;50.802;4.336;2022-11-23T02:18:41;10.80;99.90
14471;DHT22;7321;50.802;4.336;2022-11-23T02:21:08;10.90;99.90
14471;DHT22;7321;50.802;4.336;2022-11-23T02:23:41;10.80;99.90
14471;DHT22;7321;50.802;4.336;2022-11-23T02:26:15;10.70;99.90
14471;DHT22;7321;50.802;4.336;2022-11-23T02:28:55;10.60;99.90
14471;DHT22;7321;50.802;4.336;2022-11-23T02:31:22;10.70;99.90
14471;DHT22;7321;50.802;4.336;2022-11-23T02:33:48;10.80;99.90
14471;DHT22;7321;50.802;4.336;2022-11-23T02:36:41;10.70;99.90
14471;DHT22;7321;50.802;4.336;2022-11-23T02:39:20;10.60;99.90
14471;DHT22;7321;50.802;4.336;2022-11-23T02:41:51;10.70;99.90
14471;DHT22;7321;50.802;4.336;2022-11-23T02:47:04;10.80;99.90
14471;DHT22;7321;50.802;4.336;2022-11-23T02:49:29;10.90;99.90
14471;DHT22;7321;50.802;4.336;2022-11-23T02:51:55;11.00;99.90
14471;DHT22;7321;50.802;4.336;2022-11-23T02:54:21;10.90;99.90
14471;DHT22;7321;50.802;4.336;2022-11-23T02:56:47;10.80;99.90
14471;DHT22;7321;50.802;4.336;2022-11-23T02:59:13;10.90;99.90
14471;DHT22;7321;50.802;4.336;2022-11-23T03:01:38;11.00;99.90
14471;DHT22;7321;50.802;4.336;2022-11-23T03:04:05;10.90;99.90
14471;DHT22;7321;50.802;4.336;2022-11-23T03:06:31;10.70;99.90
14471;DHT22;7321;50.802;4.336;2022-11-23T03:08:57;10.70;99.90
14471;DHT22;7321;50.802;4.336;2022-11-23T03:11:23;10.70;99.90
14471;DHT22;7321;50.802;4.336;2022-11-23T03:13:49;10.70;99.90
14471;DHT22;7321;50.802;4.336;2022-11-23T03:16:14;10.80;99.90
14471;DHT22;7321;50.802;4.336;2022-11-23T03:18:41;10.70;99.90
14471;DHT22;7321;50.802;4.336;2022-11-23T03:21:07;10.80;99.90
14471;DHT22;7321;50.802;4.336;2022-11-23T03:23:34;10.90;99.90
14471;DHT22;7321;50.802;4.336;2022-11-23T03:26:00;10.90;99.90
14471;DHT22;7321;50.802;4.336;2022-11-23T03:28:26;10.90;99.90
14471;DHT22;7321;50.802;4.336;2022-11-23T03:30:52;10.90;99.90
14471;DHT22;7321;50.802;4.336;2022-11-23T03:33:18;11.00;99.90
14471;DHT22;7321;50.802;4.336;2022-11-23T03:35:44;10.90;99.90
14471;DHT22;7321;50.802;4.336;2022-11-23T03:38:10;11.00;99.90
14471;DHT22;7321;50.802;4.336;2022-11-23T03:40:36;10.70;99.90
14471;DHT22;7321;50.802;4.336;2022-11-23T03:43:02;10.70;99.90
14471;DHT22;7321;50.802;4.336;2022-11-23T03:45:28;10.70;99.90
14471;DHT22;7321;50.802;4.336;2022-11-23T03:47:53;10.60;99.90
14471;DHT22;7321;50.802;4.336;2022-11-23T03:50:19;10.60;99.90
14471;DHT22;7321;50.802;4.336;2022-11-23T03:52:48;10.50;99.90
14471;DHT22;7321;50.802;4.336;2022-11-23T03:55:14;10.60;99.90
14471;DHT22;7321;50.802;4.336;2022-11-23T03:57:40;10.60;99.90
14471;DHT22;7321;50.802;4.336;2022-11-23T04:00:06;10.50;99.90
14471;DHT22;7321;50.802;4.336;2022-11-23T04:02:33;10.50;99.90
14471;DHT22;7321;50.802;4.336;2022-11-23T04:04:59;10.50;99.90
14471;DHT22;7321;50.802;4.336;2022-11-23T04:07:26;10.30;99.90
14471;DHT22;7321;50.802;4.336;2022-11-23T04:09:52;10.40;99.90
14471;DHT22;7321;50.802;4.336;2022-11-23T04:12:18;10.50;99.90
14471;DHT22;7321;50.802;4.336;2022-11-23T04:14:43;10.50;99.90
14471;DHT22;7321;50.802;4.336;2022-11-23T04:17:09;10.60;99.90
14471;DHT22;7321;50.802;4.336;2022-11-23T04:19:35;10.50;99.90
14471;DHT22;7321;50.802;4.336;2022-11-23T04:22:01;10.50;99.90
14471;DHT22;7321;50.802;4.336;2022-11-23T04:24:26;10.60;99.90
14471;DHT22;7321;50.802;4.336;2022-11-23T04:26:52;10.50;99.90
14471;DHT22;7321;50.802;4.336;2022-11-23T04:29:18;10.30;99.90
14471;DHT22;7321;50.802;4.336;2022-11-23T04:31:44;10.30;99.90
14471;DHT22;7321;50.802;4.336;2022-11-23T04:34:09;10.30;99.90
14471;DHT22;7321;50.802;4.336;2022-11-23T04:36:35;10.20;99.90
14471;DHT22;7321;50.802;4.336;2022-11-23T04:39:01;10.20;99.90
14471;DHT22;7321;50.802;4.336;2022-11-23T04:41:29;10.10;99.90
14471;DHT22;7321;50.802;4.336;2022-11-23T04:43:54;10.10;99.90
14471;DHT22;7321;50.802;4.336;2022-11-23T04:46:20;10.00;99.90
14471;DHT22;7321;50.802;4.336;2022-11-23T04:48:46;10.00;99.90
14471;DHT22;7321;50.802;4.336;2022-11-23T04:51:12;10.00;99.90
14471;DHT22;7321;50.802;4.336;2022-11-23T04:53:39;10.00;99.90
14471;DHT22;7321;50.802;4.336;2022-11-23T04:56:05;10.10;99.90
14471;DHT22;7321;50.802;4.336;2022-11-23T04:58:31;10.10;99.90
14471;DHT22;7321;50.802;4.336;2022-11-23T05:00:57;10.10;99.90
14471;DHT22;7321;50.802;4.336;2022-11-23T05:03:23;10.10;99.90
14471;DHT22;7321;50.802;4.336;2022-11-23T05:05:49;10.10;99.90
14471;DHT22;7321;50.802;4.336;2022-11-23T05:08:15;9.90;99.90
14471;DHT22;7321;50.802;4.336;2022-11-23T05:10:41;9.80;99.90
14471;DHT22;7321;50.802;4.336;2022-11-23T05:13:08;9.90;99.90
14471;DHT22;7321;50.802;4.336;2022-11-23T05:15:33;9.90;99.90
14471;DHT22;7321;50.802;4.336;2022-11-23T05:18:03;9.90;99.90
14471;DHT22;7321;50.802;4.336;2022-11-23T05:20:31;9.70;99.90
14471;DHT22;7321;50.802;4.336;2022-11-23T05:22:57;9.70;99.90
14471;DHT22;7321;50.802;4.336;2022-11-23T05:25:23;9.60;99.90
14471;DHT22;7321;50.802;4.336;2022-11-23T05:27:49;9.50;99.90
14471;DHT22;7321;50.802;4.336;2022-11-23T05:30:15;9.50;99.90
14471;DHT22;7321;50.802;4.336;2022-11-23T05:32:41;9.30;99.90
14471;DHT22;7321;50.802;4.336;2022-11-23T05:35:07;9.30;99.90
14471;DHT22;7321;50.802;4.336;2022-11-23T05:37:33;9.40;99.90
14471;DHT22;7321;50.802;4.336;2022-11-23T05:39:59;9.50;99.90
14471;DHT22;7321;50.802;4.336;2022-11-23T05:42:26;9.60;99.90
14471;DHT22;7321;50.802;4.336;2022-11-23T05:44:51;9.50;99.90
14471;DHT22;7321;50.802;4.336;2022-11-23T05:47:17;9.40;99.90
14471;DHT22;7321;50.802;4.336;2022-11-23T05:49:43;9.40;99.90
14471;DHT22;7321;50.802;4.336;2022-11-23T05:52:09;9.40;99.90
14471;DHT22;7321;50.802;4.336;2022-11-23T05:54:34;9.40;99.90
14471;DHT22;7321;50.802;4.336;2022-11-23T05:57:00;9.40;99.90
14471;DHT22;7321;50.802;4.336;2022-11-23T05:59:26;9.40;99.90
14471;DHT22;7321;50.802;4.336;2022-11-23T06:01:52;9.30;99.90
14471;DHT22;7321;50.802;4.336;2022-11-23T06:04:18;9.10;99.90
14471;DHT22;7321;50.802;4.336;2022-11-23T06:06:44;9.00;99.90
14471;DHT22;7321;50.802;4.336;2022-11-23T06:09:09;8.90;99.90
14471;DHT22;7321;50.802;4.336;2022-11-23T06:11:35;9.00;99.90
14471;DHT22;7321;50.802;4.336;2022-11-23T06:14:01;8.90;99.90
14471;DHT22;7321;50.802;4.336;2022-11-23T06:16:27;8.80;99.90
14471;DHT22;7321;50.802;4.336;2022-11-23T06:18:53;8.80;99.90
14471;DHT22;7321;50.802;4.336;2022-11-23T06:21:19;8.80;99.90
14471;DHT22;7321;50.802;4.336;2022-11-23T06:23:47;8.70;99.90
14471;DHT22;7321;50.802;4.336;2022-11-23T06:26:13;8.80;99.90
14471;DHT22;7321;50.802;4.336;2022-11-23T06:28:39;8.80;99.90
14471;DHT22;7321;50.802;4.336;2022-11-23T06:31:06;8.70;99.90
14471;DHT22;7321;50.802;4.336;2022-11-23T06:33:35;8.60;99.90
14471;DHT22;7321;50.802;4.336;2022-11-23T06:36:02;8.60;99.90
14471;DHT22;7321;50.802;4.336;2022-11-23T06:38:28;8.50;99.90
14471;DHT22;7321;50.802;4.336;2022-11-23T06:40:57;8.20;99.90
14471;DHT22;7321;50.802;4.336;2022-11-23T06:43:23;8.10;99.90
14471;DHT22;7321;50.802;4.336;2022-11-23T06:45:49;8.10;99.90
14471;DHT22;7321;50.802;4.336;2022-11-23T06:48:15;8.20;99.90
14471;DHT22;7321;50.802;4.336;2022-11-23T06:50:40;8.20;99.90
14471;DHT22;7321;50.802;4.336;2022-11-23T06:53:07;8.20;99.90
14471;DHT22;7321;50.802;4.336;2022-11-23T06:55:35;8.10;99.90
14471;DHT22;7321;50.802;4.336;2022-11-23T06:58:01;8.00;99.90
14471;DHT22;7321;50.802;4.336;2022-11-23T07:00:26;8.00;99.90
14471;DHT22;7321;50.802;4.336;2022-11-23T07:02:53;7.90;99.90
14471;DHT22;7321;50.802;4.336;2022-11-23T07:05:19;7.80;99.90
14471;DHT22;7321;50.802;4.336;2022-11-23T07:07:45;7.80;99.90
14471;DHT22;7321;50.802;4.336;2022-11-23T07:10:11;7.70;99.90
14471;DHT22;7321;50.802;4.336;2022-11-23T07:12:38;7.70;99.90
14471;DHT22;7321;50.802;4.336;2022-11-23T07:15:04;7.70;99.90
14471;DHT22;7321;50.802;4.336;2022-11-23T07:17:30;7.70;99.90
14471;DHT22;7321;50.802;4.336;2022-11-23T07:19:55;7.70;99.90
14471;DHT22;7321;50.802;4.336;2022-11-23T07:22:21;7.60;99.90
14471;DHT22;7321;50.802;4.336;2022-11-23T07:24:47;7.50;99.90
14471;DHT22;7321;50.802;4.336;2022-11-23T07:27:13;7.60;99.90
14471;DHT22;7321;50.802;4.336;2022-11-23T07:29:40;7.60;99.90
14471;DHT22;7321;50.802;4.336;2022-11-23T07:32:06;7.60;99.90
14471;DHT22;7321;50.802;4.336;2022-11-23T07:34:33;7.60;99.90
14471;DHT22;7321;50.802;4.336;2022-11-23T07:36:58;7.50;99.90
14471;DHT22;7321;50.802;4.336;2022-11-23T07:39:24;7.60;99.90
14471;DHT22;7321;50.802;4.336;2022-11-23T07:41:50;7.70;99.90
14471;DHT22;7321;50.802;4.336;2022-11-23T07:44:16;7.80;99.90
14471;DHT22;7321;50.802;4.336;2022-11-23T07:46:41;7.80;99.90
14471;DHT22;7321;50.802;4.336;2022-11-23T07:49:07;7.80;99.90
14471;DHT22;7321;50.802;4.336;2022-11-23T07:51:33;7.70;99.90
14471;DHT22;7321;50.802;4.336;2022-11-23T07:53:59;7.60;99.90
14471;DHT22;7321;50.802;4.336;2022-11-23T07:56:24;7.60;99.90
14471;DHT22;7321;50.802;4.336;2022-11-23T07:58:50;7.60;99.90
14471;DHT22;7321;50.802;4.336;2022-11-23T08:01:17;7.80;99.90
14471;DHT22;7321;50.802;4.336;2022-11-23T08:03:44;7.90;99.90
14471;DHT22;7321;50.802;4.336;2022-11-23T08:06:11;8.00;99.90
14471;DHT22;7321;50.802;4.336;2022-11-23T08:08:37;8.00;99.90
14471;DHT22;7321;50.802;4.336;2022-11-23T08:11:07;8.00;99.90
14471;DHT22;7321;50.802;4.336;2022-11-23T08:13:34;8.10;99.90
14471;DHT22;7321;50.802;4.336;2022-11-23T08:16:14;8.10;99.90
14471;DHT22;7321;50.802;4.336;2022-11-23T08:18:40;8.40;99.90
14471;DHT22;7321;50.802;4.336;2022-11-23T08:21:06;8.40;99.90
14471;DHT22;7321;50.802;4.336;2022-11-23T08:23:31;8.50;99.90
14471;DHT22;7321;50.802;4.336;2022-11-23T08:25:57;8.40;99.90
14471;DHT22;7321;50.802;4.336;2022-11-23T08:28:23;8.40;99.90
14471;DHT22;7321;50.802;4.336;2022-11-23T08:30:49;8.50;99.90
14471;DHT22;7321;50.802;4.336;2022-11-23T08:33:15;8.60;99.90
14471;DHT22;7321;50.802;4.336;2022-11-23T08:35:41;8.60;99.90
14471;DHT22;7321;50.802;4.336;2022-11-23T08:38:08;8.70;99.90
14471;DHT22;7321;50.802;4.336;2022-11-23T08:40:35;8.70;99.90
14471;DHT22;7321;50.802;4.336;2022-11-23T08:43:01;8.70;99.90
14471;DHT22;7321;50.802;4.336;2022-11-23T08:45:28;8.70;99.90
14471;DHT22;7321;50.802;4.336;2022-11-23T08:47:58;8.80;99.90
14471;DHT22;7321;50.802;4.336;2022-11-23T08:50:24;8.80;99.90
14471;DHT22;7321;50.802;4.336;2022-11-23T08:52:57;8.70;99.90
14471;DHT22;7321;50.802;4.336;2022-11-23T08:55:24;8.80;99.90
14471;DHT22;7321;50.802;4.336;2022-11-23T08:57:57;8.60;99.90
14471;DHT22;7321;50.802;4.336;2022-11-23T09:00:24;8.60;99.90
14471;DHT22;7321;50.802;4.336;2022-11-23T09:02:50;8.80;99.90
14471;DHT22;7321;50.802;4.336;2022-11-23T09:05:19;8.80;99.90
14471;DHT22;7321;50.802;4.336;2022-11-23T09:07:45;8.90;99.90
14471;DHT22;7321;50.802;4.336;2022-11-23T09:10:10;9.00;99.90
14471;DHT22;7321;50.802;4.336;2022-11-23T09:12:36;9.10;99.90
14471;DHT22;7321;50.802;4.336;2022-11-23T09:15:03;9.20;99.90
14471;DHT22;7321;50.802;4.336;2022-11-23T09:17:30;9.20;99.90
14471;DHT22;7321;50.802;4.336;2022-11-23T09:19:57;9.20;99.90
14471;DHT22;7321;50.802;4.336;2022-11-23T09:22:22;9.30;99.90
14471;DHT22;7321;50.802;4.336;2022-11-23T09:24:48;9.20;99.90
14471;DHT22;7321;50.802;4.336;2022-11-23T09:27:17;9.30;99.90
14471;DHT22;7321;50.802;4.336;2022-11-23T09:29:52;9.30;99.90
14471;DHT22;7321;50.802;4.336;2022-11-23T09:32:20;9.20;99.90
14471;DHT22;7321;50.802;4.336;2022-11-23T09:34:46;9.30;99.90
14471;DHT22;7321;50.802;4.336;2022-11-23T09:37:12;9.30;99.90
14471;DHT22;7321;50.802;4.336;2022-11-23T09:39:38;9.40;99.90
14471;DHT22;7321;50.802;4.336;2022-11-23T09:47:43;9.20;99.90
14471;DHT22;7321;50.802;4.336;2022-11-23T09:50:33;9.20;99.90
14471;DHT22;7321;50.802;4.336;2022-11-23T09:53:08;9.20;99.90
14471;DHT22;7321;50.802;4.336;2022-11-23T09:55:42;9.30;99.90
14471;DHT22;7321;50.802;4.336;2022-11-23T09:58:14;9.40;99.90
14471;DHT22;7321;50.802;4.336;2022-11-23T10:00:59;9.30;99.90
14471;DHT22;7321;50.802;4.336;2022-11-23T10:03:33;9.50;99.90
14471;DHT22;7321;50.802;4.336;2022-11-23T10:11:39;9.40;99.90
14471;DHT22;7321;50.802;4.336;2022-11-23T10:25:17;9.40;99.90
14471;DHT22;7321;50.802;4.336;2022-11-23T10:27:45;9.60;99.90
14471;DHT22;7321;50.802;4.336;2022-11-23T10:30:14;9.60;99.90
14471;DHT22;7321;50.802;4.336;2022-11-23T10:32:44;9.70;99.90
14471;DHT22;7321;50.802;4.336;2022-11-23T10:37:42;9.90;99.90
14471;DHT22;7321;50.802;4.336;2022-11-23T10:40:18;10.00;99.90
14471;DHT22;7321;50.802;4.336;2022-11-23T10:42:57;10.00;99.90
14471;DHT22;7321;50.802;4.336;2022-11-23T10:45:28;10.10;99.90
14471;DHT22;7321;50.802;4.336;2022-11-23T10:47:56;10.20;99.90
14471;DHT22;7321;50.802;4.336;2022-11-23T10:52:56;10.20;99.90
14471;DHT22;7321;50.802;4.336;2022-11-23T10:55:29;10.10;99.90
14471;DHT22;7321;50.802;4.336;2022-11-23T10:57:56;10.20;99.90
14471;DHT22;7321;50.802;4.336;2022-11-23T11:00:23;10.20;99.90
14471;DHT22;7321;50.802;4.336;2022-11-23T11:02:57;10.20;99.90
14471;DHT22;7321;50.802;4.336;2022-11-23T11:05:38;10.20;99.90
14471;DHT22;7321;50.802;4.336;2022-11-23T11:08:18;10.10;99.90
14471;DHT22;7321;50.802;4.336;2022-11-23T11:10:48;10.20;99.90
14471;DHT22;7321;50.802;4.336;2022-11-23T11:13:25;10.20;99.90
14471;DHT22;7321;50.802;4.336;2022-11-23T11:15:53;10.20;99.90
14471;DHT22;7321;50.802;4.336;2022-11-23T11:18:19;10.30;99.90
14471;DHT22;7321;50.802;4.336;2022-11-23T11:20:46;10.50;99.90
14471;DHT22;7321;50.802;4.336;2022-11-23T11:23:20;10.50;99.90
14471;DHT22;7321;50.802;4.336;2022-11-23T11:25:50;10.60;99.90
14471;DHT22;7321;50.802;4.336;2022-11-23T11:28:36;10.80;99.90
14471;DHT22;7321;50.802;4.336;2022-11-23T11:34:10;10.90;99.90
14471;DHT22;7321;50.802;4.336;2022-11-23T11:36:45;11.10;99.90
14471;DHT22;7321;50.802;4.336;2022-11-23T11:39:29;11.20;99.90
14471;DHT22;7321;50.802;4.336;2022-11-23T11:42:01;11.20;99.90
14471;DHT22;7321;50.802;4.336;2022-11-23T11:44:32;11.30;99.90
14471;DHT22;7321;50.802;4.336;2022-11-23T11:47:05;11.30;99.90
14471;DHT22;7321;50.802;4.336;2022-11-23T11:49:42;11.30;99.90
14471;DHT22;7321;50.802;4.336;2022-11-23T11:52:19;11.30;99.90
14471;DHT22;7321;50.802;4.336;2022-11-23T11:58:02;11.40;99.90
14471;DHT22;7321;50.802;4.336;2022-11-23T12:00:27;11.30;99.90
14471;DHT22;7321;50.802;4.336;2022-11-23T12:05:48;11.20;99.90
14471;DHT22;7321;50.802;4.336;2022-11-23T12:08:21;11.30;99.90
14471;DHT22;7321;50.802;4.336;2022-11-23T12:10:50;11.30;99.90
14471;DHT22;7321;50.802;4.336;2022-11-23T12:13:32;11.50;99.90
14471;DHT22;7321;50.802;4.336;2022-11-23T12:19:01;11.40;99.90
14471;DHT22;7321;50.802;4.336;2022-11-23T12:24:59;11.40;99.90
14471;DHT22;7321;50.802;4.336;2022-11-23T12:30:17;11.30;99.90
14471;DHT22;7321;50.802;4.336;2022-11-23T12:41:31;11.20;99.90
14471;DHT22;7321;50.802;4.336;2022-11-23T12:49:53;11.20;99.90
14471;DHT22;7321;50.802;4.336;2022-11-23T12:57:48;11.40;99.90
14471;DHT22;7321;50.802;4.336;2022-11-23T13:00:20;11.30;99.90
14471;DHT22;7321;50.802;4.336;2022-11-23T13:14:11;10.80;99.90
14471;DHT22;7321;50.802;4.336;2022-11-23T13:22:01;10.40;99.90
14471;DHT22;7321;50.802;4.336;2022-11-23T13:24:34;10.40;99.90
14471;DHT22;7321;50.802;4.336;2022-11-23T13:34:59;10.00;99.90
14471;DHT22;7321;50.802;4.336;2022-11-23T13:37:25;9.90;99.90
14471;DHT22;7321;50.802;4.336;2022-11-23T13:42:26;9.90;99.90
14471;DHT22;7321;50.802;4.336;2022-11-23T13:50:58;10.10;99.90
14471;DHT22;7321;50.802;4.336;2022-11-23T13:53:45;10.00;99.90
14471;DHT22;7321;50.802;4.336;2022-11-23T13:56:32;10.00;99.90
14471;DHT22;7321;50.802;4.336;2022-11-23T14:07:20;10.10;99.90
14471;DHT22;7321;50.802;4.336;2022-11-23T14:09:53;10.00;99.90
14471;DHT22;7321;50.802;4.336;2022-11-23T14:12:34;9.90;99.90
14471;DHT22;7321;50.802;4.336;2022-11-23T14:15:20;9.90;99.90
14471;DHT22;7321;50.802;4.336;2022-11-23T14:27:03;10.20;99.90
14471;DHT22;7321;50.802;4.336;2022-11-23T14:30:12;10.10;99.90
14471;DHT22;7321;50.802;4.336;2022-11-23T14:35:45;10.30;99.90
14471;DHT22;7321;50.802;4.336;2022-11-23T14:38:13;10.40;99.90
14471;DHT22;7321;50.802;4.336;2022-11-23T14:41:11;10.40;99.90
14471;DHT22;7321;50.802;4.336;2022-11-23T14:43:41;10.40;99.90
14471;DHT22;7321;50.802;4.336;2022-11-23T14:48:40;10.40;99.90
14471;DHT22;7321;50.802;4.336;2022-11-23T14:51:18;10.40;99.90
14471;DHT22;7321;50.802;4.336;2022-11-23T14:53:48;10.30;99.90
14471;DHT22;7321;50.802;4.336;2022-11-23T14:56:31;10.40;99.90
14471;DHT22;7321;50.802;4.336;2022-11-23T14:59:14;10.50;99.90
14471;DHT22;7321;50.802;4.336;2022-11-23T15:01:52;10.50;99.90
14471;DHT22;7321;50.802;4.336;2022-11-23T15:04:28;10.40;99.90
14471;DHT22;7321;50.802;4.336;2022-11-23T15:07:10;10.60;99.90
14471;DHT22;7321;50.802;4.336;2022-11-23T15:10:04;10.70;99.90
14471;DHT22;7321;50.802;4.336;2022-11-23T15:12:46;10.70;99.90
14471;DHT22;7321;50.802;4.336;2022-11-23T15:17:56;10.80;99.90
14471;DHT22;7321;50.802;4.336;2022-11-23T15:20:25;10.80;99.90
14471;DHT22;7321;50.802;4.336;2022-11-23T15:22:52;11.00;99.90
14471;DHT22;7321;50.802;4.336;2022-11-23T15:25:18;11.00;99.90
14471;DHT22;7321;50.802;4.336;2022-11-23T15:27:45;11.00;99.90
14471;DHT22;7321;50.802;4.336;2022-11-23T15:30:34;11.00;99.90
14471;DHT22;7321;50.802;4.336;2022-11-23T15:33:04;10.80;99.90
14471;DHT22;7321;50.802;4.336;2022-11-23T15:35:37;10.60;99.90
14471;DHT22;7321;50.802;4.336;2022-11-23T15:38:09;10.60;99.90
14471;DHT22;7321;50.802;4.336;2022-11-23T15:40:36;10.60;99.90
14471;DHT22;7321;50.802;4.336;2022-11-23T15:43:03;10.60;99.90
14471;DHT22;7321;50.802;4.336;2022-11-23T15:45:57;10.50;99.90
14471;DHT22;7321;50.802;4.336;2022-11-23T15:48:33;10.30;99.90
14471;DHT22;7321;50.802;4.336;2022-11-23T15:51:05;10.20;99.90
14471;DHT22;7321;50.802;4.336;2022-11-23T15:53:47;10.20;99.90
14471;DHT22;7321;50.802;4.336;2022-11-23T15:56:35;10.20;99.90
14471;DHT22;7321;50.802;4.336;2022-11-23T16:01:42;10.10;99.90
14471;DHT22;7321;50.802;4.336;2022-11-23T16:04:27;10.10;99.90
14471;DHT22;7321;50.802;4.336;2022-11-23T16:12:33;10.00;99.90
14471;DHT22;7321;50.802;4.336;2022-11-23T16:18:20;10.00;99.90
14471;DHT22;7321;50.802;4.336;2022-11-23T16:20:56;10.00;99.90
14471;DHT22;7321;50.802;4.336;2022-11-23T16:23:55;10.00;99.90
14471;DHT22;7321;50.802;4.336;2022-11-23T16:26:30;10.00;99.90
14471;DHT22;7321;50.802;4.336;2022-11-23T16:28:59;9.90;99.90
14471;DHT22;7321;50.802;4.336;2022-11-23T16:31:51;9.80;99.90
14471;DHT22;7321;50.802;4.336;2022-11-23T16:34:18;9.80;99.90
14471;DHT22;7321;50.802;4.336;2022-11-23T16:36:52;9.90;99.90
14471;DHT22;7321;50.802;4.336;2022-11-23T16:39:23;10.00;99.90
14471;DHT22;7321;50.802;4.336;2022-11-23T16:41:51;9.90;99.90
14471;DHT22;7321;50.802;4.336;2022-11-23T16:44:18;10.00;99.90
14471;DHT22;7321;50.802;4.336;2022-11-23T16:46:44;9.90;99.90
14471;DHT22;7321;50.802;4.336;2022-11-23T16:49:21;9.90;99.90
14471;DHT22;7321;50.802;4.336;2022-11-23T16:51:51;10.00;99.90
14471;DHT22;7321;50.802;4.336;2022-11-23T16:54:19;10.00;99.90
14471;DHT22;7321;50.802;4.336;2022-11-23T16:57:00;10.00;99.90
14471;DHT22;7321;50.802;4.336;2022-11-23T16:59:29;9.90;99.90
14471;DHT22;7321;50.802;4.336;2022-11-23T17:01:58;9.70;99.90
14471;DHT22;7321;50.802;4.336;2022-11-23T17:04:26;9.80;99.90
14471;DHT22;7321;50.802;4.336;2022-11-23T17:06:52;9.90;99.90
14471;DHT22;7321;50.802;4.336;2022-11-23T17:09:18;9.80;99.90
14471;DHT22;7321;50.802;4.336;2022-11-23T17:11:45;9.90;99.90
14471;DHT22;7321;50.802;4.336;2022-11-23T17:14:13;10.00;99.90
14471;DHT22;7321;50.802;4.336;2022-11-23T17:16:40;10.00;99.90
14471;DHT22;7321;50.802;4.336;2022-11-23T17:19:17;10.10;99.90
14471;DHT22;7321;50.802;4.336;2022-11-23T17:21:44;10.10;99.90
14471;DHT22;7321;50.802;4.336;2022-11-23T17:24:10;10.10;99.90
14471;DHT22;7321;50.802;4.336;2022-11-23T17:26:47;10.00;99.90
14471;DHT22;7321;50.802;4.336;2022-11-23T17:29:18;9.80;99.90
14471;DHT22;7321;50.802;4.336;2022-11-23T17:31:45;9.90;99.90
14471;DHT22;7321;50.802;4.336;2022-11-23T17:34:12;10.00;99.90
14471;DHT22;7321;50.802;4.336;2022-11-23T17:36:38;10.00;99.90
14471;DHT22;7321;50.802;4.336;2022-11-23T17:39:05;10.10;99.90
14471;DHT22;7321;50.802;4.336;2022-11-23T17:41:31;10.10;99.90
14471;DHT22;7321;50.802;4.336;2022-11-23T17:43:57;10.20;99.90
14471;DHT22;7321;50.802;4.336;2022-11-23T17:46:25;10.20;99.90
14471;DHT22;7321;50.802;4.336;2022-11-23T17:48:57;10.10;99.90
14471;DHT22;7321;50.802;4.336;2022-11-23T17:51:53;10.20;99.90
14471;DHT22;7321;50.802;4.336;2022-11-23T17:54:22;10.20;99.90
14471;DHT22;7321;50.802;4.336;2022-11-23T17:56:51;10.20;99.90
14471;DHT22;7321;50.802;4.336;2022-11-23T17:59:21;10.20;99.90
14471;DHT22;7321;50.802;4.336;2022-11-23T18:01:57;10.10;99.90
14471;DHT22;7321;50.802;4.336;2022-11-23T18:04:25;10.00;99.90
14471;DHT22;7321;50.802;4.336;2022-11-23T18:07:22;10.10;99.90
14471;DHT22;7321;50.802;4.336;2022-11-23T18:09:48;10.10;99.90
14471;DHT22;7321;50.802;4.336;2022-11-23T18:12:14;10.10;99.90
14471;DHT22;7321;50.802;4.336;2022-11-23T18:14:40;10.20;99.90
14471;DHT22;7321;50.802;4.336;2022-11-23T18:17:15;10.20;99.90
14471;DHT22;7321;50.802;4.336;2022-11-23T18:19:50;10.30;99.90
14471;DHT22;7321;50.802;4.336;2022-11-23T18:22:15;10.30;99.90
14471;DHT22;7321;50.802;4.336;2022-11-23T18:24:41;10.30;99.90